createdAt,value
2022-11-08T00:00:43.682Z,100.00
2022-11-08T00:03:10.550Z,100.00
2022-11-08T00:05:55.711Z,100.00
2022-11-08T00:08:40.928Z,100.00
2022-11-08T00:11:25.997Z,100.00
2022-11-08T00:13:59.490Z,100.00
2022-11-08T00:16:28.934Z,100.00
2022-11-08T00:18:55.912Z,100.00
2022-11-08T00:21:22.741Z,100.00
2022-11-08T00:23:49.569Z,100.00
2022-11-08T00:26:16.301Z,100.00
2022-11-08T00:28:43.029Z,100.00
2022-11-08T00:31:09.889Z,100.00
2022-11-08T00:33:37.353Z,100.00
2022-11-08T00:36:05.074Z,100.00
2022-11-08T00:38:31.881Z,100.00
2022-11-08T00:40:58.619Z,100.00
2022-11-08T00:43:25.573Z,100.00
2022-11-08T00:45:52.361Z,100.00
2022-11-08T00:48:19.478Z,100.00
2022-11-08T00:50:46.506Z,100.00
2022-11-08T00:53:13.292Z,100.00
2022-11-08T00:55:40.094Z,100.00
2022-11-08T00:58:06.881Z,100.00
2022-11-08T01:00:33.966Z,100.00
2022-11-08T01:03:18.874Z,100.00
2022-11-08T01:05:48.198Z,100.00
2022-11-08T01:08:16.995Z,100.00
2022-11-08T01:10:47.928Z,100.00
2022-11-08T01:13:14.900Z,100.00
2022-11-08T01:15:44.980Z,100.00
2022-11-08T01:18:16.311Z,100.00
2022-11-08T01:20:45.519Z,100.00
2022-11-08T01:23:13.797Z,100.00
2022-11-08T01:25:44.671Z,100.00
2022-11-08T01:28:12.875Z,100.00
2022-11-08T01:30:43.230Z,100.00
2022-11-08T01:33:11.602Z,100.00
2022-11-08T01:35:38.673Z,100.00
2022-11-08T01:38:07.025Z,100.00
2022-11-08T01:40:34.381Z,100.00
2022-11-08T01:43:29.912Z,100.00
2022-11-08T01:46:20.867Z,100.00
2022-11-08T01:48:57.975Z,100.00
2022-11-08T01:51:36.426Z,100.00
2022-11-08T01:54:10.549Z,100.00
2022-11-08T01:56:39.216Z,100.00
2022-11-08T01:59:12.608Z,100.00
2022-11-08T02:01:39.633Z,100.00
2022-11-08T02:04:06.941Z,100.00
2022-11-08T02:06:38.989Z,100.00
2022-11-08T02:09:10.714Z,100.00
2022-11-08T02:11:39.397Z,100.00
2022-11-08T02:14:07.355Z,100.00
2022-11-08T02:16:34.175Z,100.00
2022-11-08T02:19:01.018Z,100.00
2022-11-08T02:21:45.669Z,100.00
2022-11-08T02:24:13.980Z,100.00
2022-11-08T02:26:41.803Z,100.00
2022-11-08T02:29:34.744Z,100.00
2022-11-08T02:32:04.882Z,100.00
2022-11-08T02:34:47.800Z,100.00
2022-11-08T02:37:18.432Z,100.00
2022-11-08T02:39:46.460Z,100.00
2022-11-08T02:42:16.662Z,100.00
2022-11-08T02:44:43.418Z,100.00
2022-11-08T02:47:10.410Z,100.00
2022-11-08T02:49:37.541Z,100.00
2022-11-08T02:52:05.067Z,100.00
2022-11-08T02:54:31.849Z,100.00
2022-11-08T02:56:58.807Z,100.00
2022-11-08T02:59:25.581Z,98.82
2022-11-08T03:01:53.069Z,97.96
2022-11-08T03:04:19.899Z,98.08
2022-11-08T03:06:46.675Z,97.82
2022-11-08T03:09:13.758Z,97.48
2022-11-08T03:11:40.706Z,97.43
2022-11-08T03:14:07.521Z,97.47
2022-11-08T03:16:34.263Z,96.72
2022-11-08T03:19:01.076Z,96.51
2022-11-08T03:21:27.842Z,96.32
2022-11-08T03:23:54.635Z,96.43
2022-11-08T03:26:21.572Z,95.80
2022-11-08T03:28:48.394Z,96.07
2022-11-08T03:31:15.176Z,96.01
2022-11-08T03:33:41.997Z,95.92
2022-11-08T03:36:09.536Z,95.23
2022-11-08T03:38:36.352Z,94.86
2022-11-08T03:41:03.161Z,94.87
2022-11-08T03:43:29.968Z,94.45
2022-11-08T03:45:56.639Z,94.96
2022-11-08T03:48:23.756Z,96.47
2022-11-08T03:50:53.570Z,98.25
2022-11-08T03:53:20.349Z,99.51
2022-11-08T03:55:47.119Z,100.00
2022-11-08T03:58:13.886Z,100.00
2022-11-08T04:00:41.636Z,100.00
2022-11-08T04:03:09.534Z,100.00
2022-11-08T04:05:36.402Z,99.78
2022-11-08T04:08:05.306Z,98.88
2022-11-08T04:10:32.667Z,97.98
2022-11-08T04:13:19.941Z,96.63
2022-11-08T04:15:53.668Z,95.22
2022-11-08T04:18:39.036Z,95.10
2022-11-08T04:21:22.276Z,93.70
2022-11-08T04:23:51.907Z,93.21
2022-11-08T04:26:21.468Z,90.35
2022-11-08T04:28:48.339Z,89.69
2022-11-08T04:31:18.734Z,90.01
2022-11-08T04:33:46.103Z,89.61
2022-11-08T04:36:16.603Z,89.13
2022-11-08T04:38:47.107Z,89.05
2022-11-08T04:41:16.039Z,88.24
2022-11-08T04:43:43.438Z,88.09
2022-11-08T04:46:13.861Z,88.34
2022-11-08T04:48:41.407Z,87.81
2022-11-08T04:51:16.229Z,87.61
2022-11-08T04:53:43.888Z,87.75
2022-11-08T04:56:20.244Z,87.80
2022-11-08T04:58:51.151Z,87.84
2022-11-08T05:01:21.973Z,88.07
2022-11-08T05:03:51.337Z,87.91
2022-11-08T05:06:22.314Z,87.72
2022-11-08T05:08:49.753Z,87.75
2022-11-08T05:11:20.398Z,88.01
2022-11-08T05:13:49.063Z,88.25
2022-11-08T05:16:36.150Z,87.46
2022-11-08T05:19:03.573Z,87.59
2022-11-08T05:21:49.831Z,87.19
2022-11-08T05:24:17.918Z,86.77
2022-11-08T05:26:47.906Z,86.97
2022-11-08T05:29:16.123Z,87.42
2022-11-08T05:31:43.320Z,87.30
2022-11-08T05:34:10.197Z,87.81
2022-11-08T05:36:37.030Z,87.39
2022-11-08T05:39:03.994Z,87.42
2022-11-08T05:41:30.811Z,87.57
2022-11-08T05:43:57.914Z,86.77
2022-11-08T05:46:25.388Z,87.14
2022-11-08T05:48:52.521Z,87.61
2022-11-08T05:51:20.312Z,88.85
2022-11-08T05:53:48.474Z,88.93
2022-11-08T05:56:15.943Z,89.09
2022-11-08T05:58:42.810Z,88.92
2022-11-08T06:01:17.131Z,88.17
2022-11-08T06:03:45.112Z,87.51
2022-11-08T06:06:18.782Z,86.95
2022-11-08T06:08:50.370Z,86.77
2022-11-08T06:11:21.791Z,86.04
2022-11-08T06:13:49.088Z,86.04
2022-11-08T06:16:18.123Z,86.16
2022-11-08T06:18:45.186Z,86.29
2022-11-08T06:21:19.299Z,86.27
2022-11-08T06:23:46.731Z,86.21
2022-11-08T06:26:13.974Z,85.29
2022-11-08T06:28:40.968Z,85.22
2022-11-08T06:31:08.016Z,85.13
2022-11-08T06:33:35.376Z,84.81
2022-11-08T06:36:02.166Z,85.10
2022-11-08T06:38:29.066Z,85.67
2022-11-08T06:41:00.637Z,86.13
2022-11-08T06:43:28.299Z,87.66
2022-11-08T06:45:55.422Z,88.41
2022-11-08T06:48:22.153Z,88.33
2022-11-08T06:50:48.929Z,89.06
2022-11-08T06:53:15.962Z,89.28
2022-11-08T06:55:43.012Z,89.58
2022-11-08T06:58:11.021Z,89.18
2022-11-08T07:00:38.422Z,88.98
2022-11-08T07:03:05.237Z,89.57
2022-11-08T07:05:34.689Z,90.04
2022-11-08T07:08:04.531Z,91.13
2022-11-08T07:10:32.938Z,91.66
2022-11-08T07:13:10.806Z,91.68
2022-11-08T07:15:39.347Z,91.87
2022-11-08T07:18:12.739Z,93.16
2022-11-08T07:20:42.019Z,93.20
2022-11-08T07:23:11.120Z,92.96
2022-11-08T07:25:38.104Z,93.12
2022-11-08T07:28:14.009Z,93.11
2022-11-08T07:30:40.794Z,92.67
2022-11-08T07:33:07.545Z,92.93
2022-11-08T07:35:34.662Z,92.41
2022-11-08T07:38:01.508Z,92.05
2022-11-08T07:40:28.581Z,91.51
2022-11-08T07:43:14.750Z,91.34
2022-11-08T07:45:42.239Z,90.64
2022-11-08T07:48:13.556Z,90.65
2022-11-08T07:50:42.594Z,90.39
2022-11-08T07:53:10.583Z,89.98
2022-11-08T07:55:41.625Z,91.00
2022-11-08T07:58:10.996Z,89.10
2022-11-08T08:00:40.468Z,88.83
2022-11-08T08:03:10.555Z,89.56
2022-11-08T08:05:43.849Z,90.42
2022-11-08T08:08:13.689Z,88.88
2022-11-08T08:10:41.431Z,89.28
2022-11-08T08:13:09.160Z,89.18
2022-11-08T08:15:36.473Z,88.57
2022-11-08T08:18:06.465Z,88.92
2022-11-08T08:20:34.798Z,88.96
2022-11-08T08:23:01.665Z,89.13
2022-11-08T08:25:30.984Z,88.87
2022-11-08T08:28:03.134Z,88.26
2022-11-08T08:30:31.754Z,88.74
2022-11-08T08:33:29.687Z,89.83
2022-11-08T08:35:57.881Z,89.09
2022-11-08T08:38:24.765Z,87.10
2022-11-08T08:40:51.956Z,86.53
2022-11-08T08:43:20.712Z,86.20
2022-11-08T08:45:48.787Z,86.92
2022-11-08T08:48:16.442Z,86.91
2022-11-08T08:50:43.251Z,87.26
2022-11-08T08:53:10.395Z,87.11
2022-11-08T08:55:39.914Z,86.25
2022-11-08T08:58:06.729Z,86.29
2022-11-08T09:03:20.945Z,86.39
2022-11-08T09:05:48.153Z,86.51
2022-11-08T09:08:15.056Z,86.41
2022-11-08T09:10:42.005Z,87.47
2022-11-08T09:13:09.125Z,87.61
2022-11-08T09:15:35.961Z,86.08
2022-11-08T09:18:03.060Z,82.18
2022-11-08T09:20:29.922Z,81.69
2022-11-08T09:23:02.999Z,80.58
2022-11-08T09:25:30.390Z,77.45
2022-11-08T09:27:57.336Z,75.59
2022-11-08T09:30:24.251Z,74.28
2022-11-08T09:33:02.920Z,72.99
2022-11-08T09:35:30.965Z,73.73
2022-11-08T09:37:58.601Z,74.18
2022-11-08T09:41:00.484Z,70.66
2022-11-08T09:43:47.295Z,70.02
2022-11-08T09:46:56.503Z,73.18
2022-11-08T09:49:38.027Z,75.14
2022-11-08T09:52:06.544Z,72.28
2022-11-08T09:54:45.165Z,73.82
2022-11-08T09:57:27.264Z,75.09
2022-11-08T10:00:04.556Z,72.98
2022-11-08T10:02:33.670Z,73.21
2022-11-08T10:05:09.399Z,72.33
2022-11-08T10:07:50.129Z,70.02
2022-11-08T10:10:57.167Z,68.49
2022-11-08T10:14:04.556Z,67.86
2022-11-08T10:16:41.858Z,67.06
2022-11-08T10:19:43.371Z,67.39
2022-11-08T10:22:43.528Z,67.53
2022-11-08T10:25:47.967Z,67.16
2022-11-08T10:28:20.282Z,67.52
2022-11-08T10:30:51.627Z,64.90
2022-11-08T10:33:24.180Z,66.84
2022-11-08T10:36:03.282Z,67.76
2022-11-08T10:38:47.457Z,67.59
2022-11-08T10:41:34.780Z,69.09
2022-11-08T10:44:11.884Z,69.10
2022-11-08T10:46:48.921Z,70.62
2022-11-08T10:49:31.204Z,71.73
2022-11-08T10:52:06.198Z,70.75
2022-11-08T10:54:55.880Z,68.47
2022-11-08T10:57:44.971Z,68.73
2022-11-08T11:00:21.068Z,70.82
2022-11-08T11:03:20.677Z,71.44
2022-11-08T11:06:02.194Z,72.82
2022-11-08T11:08:29.246Z,71.97
2022-11-08T11:11:21.930Z,73.09
2022-11-08T11:14:19.360Z,74.14
2022-11-08T11:17:01.179Z,72.63
2022-11-08T11:19:29.449Z,73.03
2022-11-08T11:22:03.688Z,68.97
2022-11-08T11:24:31.774Z,66.48
2022-11-08T11:27:14.765Z,64.46
2022-11-08T11:29:41.552Z,62.27
2022-11-08T11:32:34.996Z,60.66
2022-11-08T11:35:05.170Z,59.38
2022-11-08T11:37:43.481Z,60.96
2022-11-08T11:40:27.100Z,61.57
2022-11-08T11:43:44.976Z,61.31
2022-11-08T11:46:47.685Z,57.28
2022-11-08T11:49:20.775Z,59.61
2022-11-08T11:51:51.405Z,62.22
2022-11-08T11:54:18.181Z,60.89
2022-11-08T11:57:22.372Z,58.99
2022-11-08T12:00:15.635Z,61.31
2022-11-08T12:03:21.557Z,59.03
2022-11-08T12:06:31.223Z,53.58
2022-11-08T12:09:25.191Z,52.36
2022-11-08T12:12:31.071Z,54.63
2022-11-08T12:15:29.431Z,60.64
2022-11-08T12:18:25.735Z,61.47
2022-11-08T12:21:21.948Z,60.35
2022-11-08T12:24:13.744Z,62.63
2022-11-08T12:27:20.712Z,66.61
2022-11-08T12:30:19.957Z,68.02
2022-11-08T12:33:32.353Z,63.46
2022-11-08T12:36:14.209Z,65.03
2022-11-08T12:39:12.046Z,66.95
2022-11-08T12:42:14.457Z,63.71
2022-11-08T12:45:05.790Z,66.82
2022-11-08T12:47:49.585Z,65.45
2022-11-08T12:50:25.751Z,65.21
2022-11-08T12:53:16.253Z,66.46
2022-11-08T12:55:48.180Z,67.65
2022-11-08T12:58:34.570Z,68.56
2022-11-08T13:01:13.060Z,70.39
2022-11-08T13:03:42.933Z,68.09
2022-11-08T13:06:47.781Z,69.75
2022-11-08T13:09:35.869Z,70.66
2022-11-08T13:12:20.774Z,71.63
2022-11-08T13:14:48.629Z,72.12
2022-11-08T13:17:17.084Z,72.88
2022-11-08T13:19:47.046Z,73.29
2022-11-08T13:22:29.201Z,74.23
2022-11-08T13:25:06.214Z,75.35
2022-11-08T13:27:45.245Z,76.01
2022-11-08T13:30:11.952Z,76.28
2022-11-08T13:33:06.889Z,77.06
2022-11-08T13:36:07.344Z,77.87
2022-11-08T13:39:02.341Z,78.72
2022-11-08T13:41:29.189Z,79.18
2022-11-08T13:43:58.721Z,80.75
2022-11-08T13:46:29.392Z,81.11
2022-11-08T13:49:05.231Z,82.42
2022-11-08T13:51:40.289Z,81.42
2022-11-08T13:54:22.520Z,81.10
2022-11-08T13:56:58.662Z,78.40
2022-11-08T13:59:31.598Z,82.26
2022-11-08T14:02:00.213Z,85.96
2022-11-08T14:04:34.678Z,86.94
2022-11-08T14:07:25.777Z,86.21
2022-11-08T14:10:11.523Z,86.14
2022-11-08T14:12:56.796Z,86.10
2022-11-08T14:15:55.421Z,85.73
2022-11-08T14:18:30.311Z,87.94
2022-11-08T14:20:57.492Z,87.33
2022-11-08T14:23:37.852Z,88.55
2022-11-08T14:26:15.339Z,88.11
2022-11-08T14:28:47.637Z,88.26
2022-11-08T14:31:30.373Z,87.86
2022-11-08T14:33:59.415Z,88.59
2022-11-08T14:36:30.060Z,89.33
2022-11-08T14:39:17.089Z,88.01
2022-11-08T14:41:52.828Z,86.79
2022-11-08T14:44:19.984Z,87.24
2022-11-08T14:46:49.122Z,88.36
2022-11-08T14:49:42.116Z,87.52
2022-11-08T14:52:25.934Z,83.92
2022-11-08T14:55:08.742Z,80.81
2022-11-08T14:57:41.053Z,78.00
2022-11-08T15:00:15.993Z,73.14
2022-11-08T15:02:49.490Z,73.07
2022-11-08T15:05:44.877Z,72.96
2022-11-08T15:08:32.750Z,72.89
2022-11-08T15:11:09.181Z,73.07
2022-11-08T15:13:48.876Z,73.79
2022-11-08T15:16:16.511Z,75.53
2022-11-08T15:18:45.110Z,75.40
2022-11-08T15:21:11.913Z,76.41
2022-11-08T15:23:49.801Z,73.93
2022-11-08T15:26:32.095Z,74.47
2022-11-08T15:29:13.905Z,75.24
2022-11-08T15:31:58.437Z,75.05
2022-11-08T15:34:41.808Z,76.32
2022-11-08T15:37:32.139Z,76.36
2022-11-08T15:40:05.230Z,76.19
2022-11-08T15:42:34.965Z,76.16
2022-11-08T15:45:22.927Z,76.65
2022-11-08T15:47:50.310Z,76.81
2022-11-08T15:50:23.094Z,77.04
2022-11-08T15:52:52.801Z,77.75
2022-11-08T15:55:26.286Z,78.47
2022-11-08T15:57:54.855Z,80.09
2022-11-08T16:00:26.616Z,81.19
2022-11-08T16:02:54.349Z,82.17
2022-11-08T16:05:28.599Z,82.19
2022-11-08T16:07:55.899Z,81.65
2022-11-08T16:10:39.845Z,80.60
2022-11-08T16:13:15.750Z,80.20
2022-11-08T16:15:43.085Z,80.44
2022-11-08T16:18:11.890Z,81.08
2022-11-08T16:20:39.140Z,81.94
2022-11-08T16:23:11.929Z,81.21
2022-11-08T16:25:41.150Z,81.41
2022-11-08T16:28:37.933Z,81.57
2022-11-08T16:31:20.355Z,81.85
2022-11-08T16:33:48.163Z,81.22
2022-11-08T16:36:27.771Z,80.57
2022-11-08T16:38:59.299Z,80.04
2022-11-08T16:41:26.581Z,79.64
2022-11-08T16:43:53.870Z,78.77
2022-11-08T16:46:22.859Z,78.33
2022-11-08T16:48:56.149Z,78.36
2022-11-08T16:51:25.249Z,77.01
2022-11-08T16:53:53.493Z,76.50
2022-11-08T16:56:20.519Z,77.44
2022-11-08T16:58:47.616Z,76.99
2022-11-08T17:01:32.945Z,77.90
2022-11-08T17:03:59.831Z,78.40
2022-11-08T17:06:26.978Z,78.15
2022-11-08T17:08:53.788Z,78.48
2022-11-08T17:11:23.104Z,78.16
2022-11-08T17:13:52.465Z,78.85
2022-11-08T17:16:20.059Z,77.79
2022-11-08T17:18:52.492Z,78.33
2022-11-08T17:21:43.489Z,78.42
2022-11-08T17:24:09.556Z,79.25
2022-11-08T17:26:36.451Z,78.94
2022-11-08T17:29:03.755Z,78.75
2022-11-08T17:31:30.546Z,78.32
2022-11-08T17:33:57.355Z,76.89
2022-11-08T17:36:24.729Z,75.62
2022-11-08T17:38:51.644Z,75.72
2022-11-08T17:41:18.589Z,75.53
2022-11-08T17:43:45.551Z,76.11
2022-11-08T17:46:12.852Z,77.07
2022-11-08T17:48:40.602Z,77.29
2022-11-08T17:51:08.169Z,77.64
2022-11-08T17:53:36.196Z,77.93
2022-11-08T17:56:05.879Z,77.89
2022-11-08T17:58:35.216Z,78.17
2022-11-08T18:01:06.154Z,78.47
2022-11-08T18:03:34.357Z,78.75
2022-11-08T18:06:12.007Z,78.96
2022-11-08T18:08:39.580Z,78.98
2022-11-08T18:11:06.830Z,78.79
2022-11-08T18:13:37.728Z,79.15
2022-11-08T18:16:11.670Z,79.30
2022-11-08T18:18:39.442Z,80.08
2022-11-08T18:21:08.002Z,80.04
2022-11-08T18:23:35.910Z,80.31
2022-11-08T18:26:03.020Z,80.00
2022-11-08T18:28:29.813Z,79.38
2022-11-08T18:31:12.062Z,79.31
2022-11-08T18:33:39.859Z,79.27
2022-11-08T18:36:12.537Z,79.47
2022-11-08T18:38:40.551Z,79.49
2022-11-08T18:41:08.756Z,79.35
2022-11-08T18:43:35.627Z,79.79
2022-11-08T18:46:10.730Z,79.89
2022-11-08T18:48:37.983Z,80.26
2022-11-08T18:51:08.244Z,80.21
2022-11-08T18:53:35.120Z,79.56
2022-11-08T18:56:02.402Z,79.07
2022-11-08T18:58:29.574Z,79.07
2022-11-08T19:00:58.152Z,78.88
2022-11-08T19:03:25.797Z,79.60
2022-11-08T19:05:56.360Z,79.35
2022-11-08T19:08:26.839Z,79.56
2022-11-08T19:11:03.684Z,79.57
2022-11-08T19:13:33.621Z,79.67
2022-11-08T19:16:09.984Z,79.84
2022-11-08T19:18:37.591Z,80.06
2022-11-08T19:21:18.283Z,80.26
2022-11-08T19:23:47.871Z,79.88
2022-11-08T19:26:24.140Z,79.54
2022-11-08T19:28:54.241Z,79.62
2022-11-08T19:31:24.333Z,80.50
2022-11-08T19:33:52.738Z,80.75
2022-11-08T19:36:22.033Z,80.23
2022-11-08T19:38:48.739Z,79.95
2022-11-08T19:41:18.409Z,79.73
2022-11-08T19:43:46.157Z,80.34
2022-11-08T19:46:28.843Z,80.43
2022-11-08T19:48:56.070Z,80.55
2022-11-08T19:51:25.329Z,81.17
2022-11-08T19:53:56.485Z,81.32
2022-11-08T19:56:32.886Z,81.07
2022-11-08T19:59:04.925Z,80.25
2022-11-08T20:01:41.818Z,80.50
2022-11-08T20:04:10.356Z,81.01
2022-11-08T20:06:37.299Z,81.92
2022-11-08T20:09:05.125Z,82.90
2022-11-08T20:11:35.704Z,84.86
2022-11-08T20:14:04.965Z,86.56
2022-11-08T20:16:35.896Z,87.13
2022-11-08T20:19:11.785Z,88.36
2022-11-08T20:21:41.474Z,85.74
2022-11-08T20:24:10.150Z,84.27
2022-11-08T20:26:38.361Z,84.71
2022-11-08T20:29:07.407Z,86.19
2022-11-08T20:31:34.372Z,85.89
2022-11-08T20:34:07.229Z,84.20
2022-11-08T20:36:37.294Z,83.89
2022-11-08T20:39:07.812Z,83.24
2022-11-08T20:41:37.096Z,83.96
2022-11-08T20:44:05.732Z,84.98
2022-11-08T20:46:33.280Z,85.84
2022-11-08T20:49:01.192Z,86.16
2022-11-08T20:51:29.848Z,86.60
2022-11-08T20:53:58.340Z,87.71
2022-11-08T20:56:25.649Z,88.73
2022-11-08T20:58:53.489Z,88.91
2022-11-08T21:01:25.626Z,90.36
2022-11-08T21:03:52.682Z,91.35
2022-11-08T21:06:22.524Z,92.03
2022-11-08T21:09:28.656Z,92.85
2022-11-08T21:11:37.307Z,93.25
2022-11-08T21:14:04.598Z,94.66
2022-11-08T21:16:42.244Z,95.16
2022-11-08T21:19:14.288Z,95.41
2022-11-08T21:21:41.282Z,94.89
2022-11-08T21:24:07.991Z,95.51
2022-11-08T21:26:36.706Z,96.16
2022-11-08T21:29:04.678Z,96.33
2022-11-08T21:31:33.965Z,96.82
2022-11-08T21:34:00.727Z,97.20
2022-11-08T21:36:28.946Z,97.15
2022-11-08T21:38:55.643Z,96.62
2022-11-08T21:41:22.361Z,96.36
2022-11-08T21:43:49.167Z,97.23
2022-11-08T21:46:21.247Z,97.11
2022-11-08T21:48:53.748Z,97.79
2022-11-08T21:51:20.495Z,98.57
2022-11-08T21:53:53.871Z,97.77
2022-11-08T21:56:23.328Z,93.31
2022-11-08T21:58:50.034Z,92.54
2022-11-08T22:01:17.082Z,92.16
2022-11-08T22:03:44.168Z,91.37
2022-11-08T22:06:10.900Z,91.58
2022-11-08T22:08:37.608Z,92.20
2022-11-08T22:11:04.458Z,92.93
2022-11-08T22:13:31.162Z,93.20
2022-11-08T22:16:00.889Z,93.43
2022-11-08T22:18:43.491Z,93.79
2022-11-08T22:21:33.010Z,93.97
2022-11-08T22:23:59.744Z,93.91
2022-11-08T22:26:26.453Z,93.77
2022-11-08T22:28:53.238Z,94.16
2022-11-08T22:31:19.942Z,94.04
2022-11-08T22:33:46.756Z,93.87
2022-11-08T22:36:13.983Z,93.67
2022-11-08T22:38:40.652Z,93.57
2022-11-08T22:41:07.611Z,94.57
2022-11-08T22:43:35.762Z,95.46
2022-11-08T22:46:03.311Z,95.56
2022-11-08T22:48:30.078Z,95.61
2022-11-08T22:50:57.416Z,95.65
2022-11-08T22:53:24.142Z,96.01
2022-11-08T22:55:51.063Z,96.50
2022-11-08T22:58:17.838Z,97.11
2022-11-08T23:00:44.576Z,97.77
2022-11-08T23:03:11.289Z,98.78
2022-11-08T23:05:38.023Z,98.99
2022-11-08T23:08:05.028Z,99.31
2022-11-08T23:10:31.679Z,99.11
2022-11-08T23:13:17.430Z,98.47
2022-11-08T23:16:03.053Z,97.28
2022-11-08T23:18:29.758Z,96.95
2022-11-08T23:21:15.286Z,97.09
2022-11-08T23:24:00.664Z,96.48
2022-11-08T23:26:46.232Z,95.40
2022-11-08T23:29:31.643Z,95.66
2022-11-08T23:31:58.395Z,94.59
2022-11-08T23:34:25.122Z,94.88
2022-11-08T23:36:51.994Z,94.95
2022-11-08T23:39:18.674Z,95.05
2022-11-08T23:42:04.115Z,95.51
2022-11-08T23:44:30.821Z,95.58
2022-11-08T23:46:59.548Z,95.16
2022-11-08T23:49:27.160Z,94.90
2022-11-08T23:51:54.262Z,94.54
2022-11-08T23:54:21.306Z,94.52
2022-11-08T23:56:48.250Z,94.48
2022-11-08T23:59:15.849Z,93.68
